createdAt,value
2022-12-14T00:01:49.577Z,17.48
2022-12-14T00:04:16.872Z,14.38
2022-12-14T00:06:43.667Z,15.73
2022-12-14T00:09:10.462Z,16.02
2022-12-14T00:11:37.193Z,15.82
2022-12-14T00:14:04.969Z,18.17
2022-12-14T00:16:35.142Z,15.45
2022-12-14T00:19:02.458Z,15.35
2022-12-14T00:21:29.528Z,16.48
2022-12-14T00:23:58.766Z,15.85
2022-12-14T00:26:28.088Z,15.82
2022-12-14T00:28:56.083Z,14.60
2022-12-14T00:31:24.582Z,14.93
2022-12-14T00:33:52.327Z,15.43
2022-12-14T00:36:19.648Z,15.70
2022-12-14T00:38:46.389Z,15.13
2022-12-14T00:41:13.421Z,15.35
2022-12-14T00:43:41.159Z,16.23
2022-12-14T00:46:08.035Z,15.70
2022-12-14T00:48:35.012Z,16.58
2022-12-14T00:51:02.109Z,13.95
2022-12-14T00:53:28.873Z,15.95
2022-12-14T00:55:55.691Z,15.63
2022-12-14T00:58:24.943Z,16.52
2022-12-14T01:01:00.819Z,16.58
2022-12-14T01:03:28.183Z,14.90
2022-12-14T01:05:55.295Z,16.10
2022-12-14T01:08:22.234Z,17.40
2022-12-14T01:10:49.075Z,15.85
2022-12-14T01:13:15.784Z,16.23
2022-12-14T01:15:42.666Z,17.40
2022-12-14T01:18:09.605Z,16.10
2022-12-14T01:20:36.449Z,16.75
2022-12-14T01:23:03.301Z,17.65
2022-12-14T01:25:30.039Z,15.88
2022-12-14T01:27:56.778Z,16.52
2022-12-14T01:30:23.506Z,16.40
2022-12-14T01:32:50.332Z,17.13
2022-12-14T01:35:17.368Z,17.60
2022-12-14T01:37:44.333Z,17.98
2022-12-14T01:40:11.423Z,18.23
2022-12-14T01:42:38.667Z,17.58
2022-12-14T01:45:06.592Z,18.23
2022-12-14T01:47:39.524Z,18.08
2022-12-14T01:50:10.190Z,18.35
2022-12-14T01:52:46.536Z,16.60
2022-12-14T01:55:19.529Z,16.42
2022-12-14T01:57:59.328Z,16.70
2022-12-14T02:00:26.988Z,16.08
2022-12-14T02:03:09.373Z,16.90
2022-12-14T02:05:39.554Z,16.77
2022-12-14T02:08:08.444Z,16.58
2022-12-14T02:10:35.799Z,16.20
2022-12-14T02:13:09.838Z,16.20
2022-12-14T02:15:37.873Z,16.88
2022-12-14T02:18:08.944Z,15.80
2022-12-14T02:20:55.997Z,15.98
2022-12-14T02:23:33.092Z,16.50
2022-12-14T02:26:20.083Z,16.42
2022-12-14T02:29:05.609Z,18.27
2022-12-14T02:31:51.870Z,17.40
2022-12-14T02:34:37.913Z,15.70
2022-12-14T02:37:16.805Z,17.85
2022-12-14T02:39:55.521Z,17.40
2022-12-14T02:42:34.275Z,18.33
2022-12-14T02:45:06.211Z,18.08
2022-12-14T02:48:00.130Z,17.52
2022-12-14T02:51:06.974Z,19.42
2022-12-14T02:53:53.939Z,18.08
2022-12-14T02:56:28.873Z,16.17
2022-12-14T02:58:56.959Z,18.35
2022-12-14T03:01:27.708Z,17.95
2022-12-14T03:03:55.697Z,17.83
2022-12-14T03:06:27.648Z,19.35
2022-12-14T03:08:57.521Z,17.80
2022-12-14T03:11:31.064Z,16.98
2022-12-14T03:14:31.528Z,18.85
2022-12-14T03:17:07.603Z,17.85
2022-12-14T03:19:41.544Z,17.70
2022-12-14T03:22:13.408Z,16.77
2022-12-14T03:24:49.161Z,16.23
2022-12-14T03:27:30.985Z,17.83
2022-12-14T03:30:05.810Z,16.67
2022-12-14T03:32:35.496Z,16.63
2022-12-14T03:35:07.646Z,17.85
2022-12-14T03:37:57.349Z,17.25
2022-12-14T03:40:30.911Z,17.88
2022-12-14T03:43:30.549Z,17.37
2022-12-14T03:46:19.912Z,17.90
2022-12-14T03:48:54.518Z,18.13
2022-12-14T03:51:35.639Z,19.60
2022-12-14T03:54:44.260Z,18.08
2022-12-14T03:57:39.165Z,17.65
2022-12-14T04:00:16.793Z,18.90
2022-12-14T04:03:09.754Z,18.17
2022-12-14T04:05:49.411Z,17.77
2022-12-14T04:08:48.163Z,16.67
2022-12-14T04:11:37.046Z,17.58
2022-12-14T04:14:32.107Z,17.13
2022-12-14T04:17:23.727Z,18.45
2022-12-14T04:20:09.430Z,19.33
2022-12-14T04:22:43.890Z,18.35
2022-12-14T04:28:30.902Z,18.25
2022-12-14T04:31:02.563Z,17.05
2022-12-14T04:33:49.523Z,18.30
2022-12-14T04:37:07.664Z,16.33
2022-12-14T04:39:44.424Z,16.83
2022-12-14T04:42:13.620Z,17.45
2022-12-14T04:44:46.282Z,16.48
2022-12-14T04:47:17.200Z,16.73
2022-12-14T04:49:55.090Z,18.75
2022-12-14T04:52:38.657Z,17.88
2022-12-14T04:55:30.666Z,16.23
2022-12-14T04:58:19.903Z,16.33
2022-12-14T05:01:34.485Z,16.40
2022-12-14T05:04:12.308Z,17.38
2022-12-14T05:06:50.299Z,15.73
2022-12-14T05:09:43.181Z,16.40
2022-12-14T05:12:36.892Z,15.93
2022-12-14T05:15:17.399Z,16.45
2022-12-14T05:17:44.674Z,16.55
2022-12-14T05:20:22.711Z,15.82
2022-12-14T05:22:50.147Z,15.77
2022-12-14T05:25:17.176Z,16.85
2022-12-14T05:27:44.087Z,15.88
2022-12-14T05:30:11.408Z,17.73
2022-12-14T05:32:38.502Z,16.38
2022-12-14T05:35:05.920Z,16.95
2022-12-14T05:37:32.774Z,15.30
2022-12-14T05:39:59.958Z,16.33
2022-12-14T05:42:26.733Z,18.05
2022-12-14T05:44:53.582Z,17.17
2022-12-14T05:47:20.448Z,16.63
2022-12-14T05:49:49.163Z,15.68
2022-12-14T05:52:16.977Z,16.02
2022-12-14T05:54:43.904Z,16.25
2022-12-14T05:57:11.187Z,16.38
2022-12-14T05:59:38.060Z,16.25
2022-12-14T06:02:05.412Z,16.48
2022-12-14T06:04:32.829Z,17.42
2022-12-14T06:06:59.718Z,16.52
2022-12-14T06:09:26.601Z,17.90
2022-12-14T06:11:53.574Z,16.98
2022-12-14T06:14:20.569Z,16.27
2022-12-14T06:16:47.526Z,17.23
2022-12-14T06:19:15.732Z,17.60
2022-12-14T06:21:43.780Z,17.95
2022-12-14T06:24:13.341Z,16.60
2022-12-14T06:26:43.514Z,16.15
2022-12-14T06:29:19.378Z,17.23
2022-12-14T06:31:49.211Z,16.88
2022-12-14T06:34:17.030Z,15.70
2022-12-14T06:36:44.120Z,15.65
2022-12-14T06:39:13.758Z,16.42
2022-12-14T06:41:41.289Z,16.17
2022-12-14T06:44:14.195Z,16.42
2022-12-14T06:46:41.798Z,15.45
2022-12-14T06:49:12.643Z,15.77
2022-12-14T06:51:43.006Z,15.95
2022-12-14T06:54:12.087Z,15.85
2022-12-14T06:56:39.623Z,16.05
2022-12-14T06:59:08.564Z,16.00
2022-12-14T07:01:36.849Z,17.05
2022-12-14T07:04:04.800Z,16.67
2022-12-14T07:06:36.549Z,16.00
2022-12-14T07:09:04.690Z,16.30
2022-12-14T07:11:32.013Z,15.38
2022-12-14T07:14:03.284Z,14.38
2022-12-14T07:16:30.606Z,15.65
2022-12-14T07:18:58.074Z,14.50
2022-12-14T07:21:25.440Z,16.42
2022-12-14T07:23:53.047Z,16.27
2022-12-14T07:26:22.963Z,15.15
2022-12-14T07:28:50.449Z,15.85
2022-12-14T07:31:20.060Z,16.40
2022-12-14T07:33:47.515Z,16.40
2022-12-14T07:36:16.984Z,15.88
2022-12-14T07:38:45.554Z,19.52
2022-12-14T07:41:17.738Z,18.40
2022-12-14T07:43:50.112Z,17.50
2022-12-14T07:46:20.289Z,19.08
2022-12-14T07:48:50.727Z,17.90
2022-12-14T07:51:20.995Z,19.08
2022-12-14T07:53:55.317Z,19.40
2022-12-14T07:56:28.008Z,18.95
2022-12-14T07:58:56.696Z,18.52
2022-12-14T08:01:34.397Z,17.65
2022-12-14T08:04:12.754Z,18.55
2022-12-14T08:06:43.883Z,18.52
2022-12-14T08:09:12.852Z,18.20
2022-12-14T08:11:40.977Z,20.17
2022-12-14T08:14:14.085Z,19.63
2022-12-14T08:16:41.407Z,18.73
2022-12-14T08:19:08.437Z,19.08
2022-12-14T08:21:35.597Z,19.15
2022-12-14T08:24:02.793Z,18.25
2022-12-14T08:26:35.486Z,19.60
2022-12-14T08:29:04.683Z,18.02
2022-12-14T08:31:33.095Z,19.40
2022-12-14T08:34:01.573Z,18.58
2022-12-14T08:36:33.847Z,17.95
2022-12-14T08:39:04.398Z,17.15
2022-12-14T08:41:31.696Z,18.40
2022-12-14T08:44:00.552Z,18.42
2022-12-14T08:46:29.969Z,18.50
2022-12-14T08:48:57.675Z,19.20
2022-12-14T08:51:26.646Z,18.27
2022-12-14T08:53:54.541Z,17.55
2022-12-14T08:56:24.547Z,19.05
2022-12-14T08:58:51.802Z,18.52
2022-12-14T09:01:30.334Z,17.20
2022-12-14T09:04:06.202Z,17.92
2022-12-14T09:06:35.899Z,16.75
2022-12-14T09:09:03.888Z,17.23
2022-12-14T09:11:30.800Z,17.00
2022-12-14T09:13:58.210Z,16.33
2022-12-14T09:16:28.993Z,17.58
2022-12-14T09:18:56.168Z,17.60
2022-12-14T09:21:24.079Z,20.63
2022-12-14T09:23:57.257Z,17.25
2022-12-14T09:26:26.315Z,16.60
2022-12-14T09:28:55.493Z,16.33
2022-12-14T09:31:24.790Z,17.10
2022-12-14T09:33:51.766Z,16.75
2022-12-14T09:36:24.225Z,16.95
2022-12-14T09:38:52.730Z,16.10
2022-12-14T09:41:35.267Z,17.05
2022-12-14T09:44:34.045Z,18.13
2022-12-14T09:47:19.256Z,17.85
2022-12-14T09:49:51.404Z,16.75
2022-12-14T09:52:34.382Z,16.90
2022-12-14T09:55:06.576Z,18.95
2022-12-14T09:57:38.451Z,17.98
2022-12-14T10:00:25.772Z,19.15
2022-12-14T10:03:26.138Z,19.05
2022-12-14T10:06:15.942Z,19.33
2022-12-14T10:08:54.573Z,17.13
2022-12-14T10:11:35.693Z,19.23
2022-12-14T10:14:17.729Z,18.80
2022-12-14T10:17:04.095Z,18.10
2022-12-14T10:19:46.378Z,16.60
2022-12-14T10:22:18.093Z,16.98
2022-12-14T10:25:13.471Z,16.20
2022-12-14T10:28:09.286Z,17.40
2022-12-14T10:30:29.212Z,17.42
2022-12-14T10:33:05.067Z,17.92
2022-12-14T10:35:32.240Z,16.05
2022-12-14T10:38:03.726Z,16.05
2022-12-14T10:40:34.440Z,16.10
2022-12-14T10:43:10.160Z,16.25
2022-12-14T10:45:42.382Z,16.35
2022-12-14T10:48:37.368Z,16.38
2022-12-14T10:51:11.604Z,12.53
2022-12-14T10:53:47.946Z,16.20
2022-12-14T10:56:29.979Z,15.98
2022-12-14T10:59:18.590Z,18.55
2022-12-14T11:01:50.130Z,19.05
2022-12-14T11:04:39.390Z,19.20
2022-12-14T11:07:13.014Z,16.67
2022-12-14T11:09:40.956Z,13.65
2022-12-14T11:12:27.488Z,12.95
2022-12-14T11:15:00.833Z,12.93
2022-12-14T11:17:44.244Z,12.07
2022-12-14T11:20:27.226Z,11.93
2022-12-14T11:23:15.070Z,12.05
2022-12-14T11:25:46.364Z,12.02
2022-12-14T11:28:37.601Z,12.95
2022-12-14T11:31:33.181Z,11.95
2022-12-14T11:34:04.736Z,8.35
2022-12-14T11:36:40.506Z,12.07
2022-12-14T11:39:21.663Z,10.90
2022-12-14T11:41:52.117Z,11.50
2022-12-14T11:44:18.883Z,12.32
2022-12-14T11:46:53.922Z,11.68
2022-12-14T11:49:35.750Z,11.60
2022-12-14T11:52:05.489Z,11.55
2022-12-14T11:54:34.509Z,11.02
2022-12-14T11:57:13.820Z,11.93
2022-12-14T11:59:54.446Z,11.60
2022-12-14T12:02:35.283Z,12.90
2022-12-14T12:05:11.358Z,13.75
2022-12-14T12:07:45.860Z,12.27
2022-12-14T12:10:12.624Z,12.38
2022-12-14T12:12:59.235Z,13.50
2022-12-14T12:15:32.514Z,10.95
2022-12-14T12:18:17.341Z,11.82
2022-12-14T12:20:49.999Z,12.98
2022-12-14T12:23:24.839Z,13.20
2022-12-14T12:28:43.732Z,14.65
2022-12-14T12:31:18.958Z,14.65
2022-12-14T12:34:02.001Z,13.93
2022-12-14T12:36:32.478Z,12.70
2022-12-14T12:39:22.062Z,12.95
2022-12-14T12:42:33.487Z,12.95
2022-12-14T12:45:26.893Z,13.82
2022-12-14T12:48:11.264Z,13.75
2022-12-14T12:50:49.669Z,13.07
2022-12-14T12:53:21.160Z,13.50
2022-12-14T12:55:52.413Z,13.35
2022-12-14T12:58:26.657Z,12.60
2022-12-14T13:00:57.295Z,13.32
2022-12-14T13:03:37.352Z,11.70
2022-12-14T13:06:29.721Z,11.38
2022-12-14T13:09:06.033Z,10.70
2022-12-14T13:11:38.251Z,11.02
2022-12-14T13:14:29.164Z,11.02
2022-12-14T13:16:58.251Z,10.82
2022-12-14T13:19:54.518Z,11.27
2022-12-14T13:22:33.281Z,11.48
2022-12-14T13:25:09.244Z,10.95
2022-12-14T13:27:40.743Z,10.68
2022-12-14T13:30:22.663Z,11.60
2022-12-14T13:33:08.153Z,11.73
2022-12-14T13:35:34.940Z,11.50
2022-12-14T13:38:12.768Z,10.55
2022-12-14T13:41:15.655Z,10.55
2022-12-14T13:44:08.567Z,10.30
2022-12-14T13:46:35.680Z,10.93
2022-12-14T13:49:06.375Z,10.98
2022-12-14T13:51:40.075Z,11.35
2022-12-14T13:54:22.718Z,10.98
2022-12-14T13:56:52.215Z,11.45
2022-12-14T13:59:48.090Z,10.68
2022-12-14T14:02:30.654Z,11.13
2022-12-14T14:05:19.248Z,11.15
2022-12-14T14:08:02.216Z,11.05
2022-12-14T14:10:37.652Z,11.55
2022-12-14T14:13:29.512Z,11.25
2022-12-14T14:16:27.892Z,10.80
2022-12-14T14:19:08.002Z,10.88
2022-12-14T14:22:22.228Z,9.63
2022-12-14T14:25:20.142Z,11.27
2022-12-14T14:27:51.130Z,12.13
2022-12-14T14:30:36.867Z,11.40
2022-12-14T14:33:44.788Z,11.70
2022-12-14T14:36:25.347Z,12.02
2022-12-14T14:38:55.115Z,11.80
2022-12-14T14:41:37.647Z,13.40
2022-12-14T14:44:09.361Z,14.23
2022-12-14T14:46:47.113Z,14.02
2022-12-14T14:49:32.648Z,15.48
2022-12-14T14:52:37.598Z,13.95
2022-12-14T14:58:27.801Z,16.27
2022-12-14T15:01:15.028Z,14.15
2022-12-14T15:03:57.174Z,13.85
2022-12-14T15:06:38.352Z,16.67
2022-12-14T15:09:20.432Z,14.70
2022-12-14T15:11:54.011Z,17.75
2022-12-14T15:14:46.696Z,19.52
2022-12-14T15:17:16.073Z,16.40
2022-12-14T15:19:53.108Z,20.10
2022-12-14T15:22:22.698Z,18.58
2022-12-14T15:24:55.943Z,18.65
2022-12-14T15:27:30.452Z,17.80
2022-12-14T15:30:22.641Z,17.23
2022-12-14T15:33:06.843Z,16.70
2022-12-14T15:35:40.089Z,16.27
2022-12-14T15:38:14.809Z,16.23
2022-12-14T15:43:20.421Z,15.98
2022-12-14T15:45:50.450Z,18.38
2022-12-14T15:48:34.112Z,17.05
2022-12-14T15:51:14.232Z,18.48
2022-12-14T15:53:53.637Z,17.88
2022-12-14T15:56:40.634Z,19.15
2022-12-14T15:59:25.154Z,18.50
2022-12-14T16:02:07.283Z,14.10
2022-12-14T16:04:37.769Z,17.08
2022-12-14T16:07:14.091Z,18.90
2022-12-14T16:09:55.563Z,16.95
2022-12-14T16:12:40.911Z,21.25
2022-12-14T16:15:24.102Z,19.58
2022-12-14T16:17:59.258Z,18.45
2022-12-14T16:20:38.352Z,17.77
2022-12-14T16:23:22.851Z,18.88
2022-12-14T16:25:53.491Z,14.05
2022-12-14T16:28:35.688Z,21.17
2022-12-14T16:31:18.307Z,20.55
2022-12-14T16:33:45.617Z,21.15
2022-12-14T16:36:28.240Z,21.48
2022-12-14T16:39:07.376Z,22.40
2022-12-14T16:42:05.258Z,23.15
2022-12-14T16:44:32.023Z,21.27
2022-12-14T16:47:04.933Z,23.25
2022-12-14T16:49:34.338Z,25.10
2022-12-14T16:52:26.429Z,22.50
2022-12-14T16:55:17.748Z,23.60
2022-12-14T16:57:53.634Z,23.63
2022-12-14T17:00:32.379Z,21.73
2022-12-14T17:03:03.300Z,23.05
2022-12-14T17:05:41.061Z,23.65
2022-12-14T17:08:10.678Z,22.17
2022-12-14T17:10:38.878Z,24.73
2022-12-14T17:13:05.721Z,24.02
2022-12-14T17:15:35.237Z,25.95
2022-12-14T17:18:04.542Z,26.38
2022-12-14T17:20:36.623Z,26.17
2022-12-14T17:23:06.315Z,26.05
2022-12-14T17:25:33.699Z,24.70
2022-12-14T17:28:01.494Z,35.40
2022-12-14T17:30:28.721Z,29.30
2022-12-14T17:32:56.087Z,29.95
2022-12-14T17:35:29.685Z,28.88
2022-12-14T17:37:57.342Z,31.13
2022-12-14T17:40:25.156Z,33.15
2022-12-14T17:42:54.549Z,32.17
2022-12-14T17:45:26.068Z,33.15
2022-12-14T17:47:53.115Z,34.97
2022-12-14T17:50:20.740Z,35.72
2022-12-14T17:52:48.448Z,34.63
2022-12-14T17:55:21.460Z,36.38
2022-12-14T17:57:49.713Z,36.08
2022-12-14T18:00:42.910Z,40.15
2022-12-14T18:03:11.503Z,37.67
2022-12-14T18:05:44.878Z,40.75
2022-12-14T18:08:13.526Z,41.92
2022-12-14T18:10:41.627Z,40.58
2022-12-14T18:13:10.365Z,44.58
2022-12-14T18:15:49.903Z,42.90
2022-12-14T18:18:21.867Z,56.22
2022-12-14T18:20:52.858Z,43.15
2022-12-14T18:23:21.729Z,39.25
2022-12-14T18:25:56.672Z,39.33
2022-12-14T18:28:24.383Z,35.80
2022-12-14T18:30:57.553Z,39.17
2022-12-14T18:33:27.237Z,39.25
2022-12-14T18:35:56.366Z,45.10
2022-12-14T18:38:24.529Z,43.20
2022-12-14T18:40:54.054Z,44.20
2022-12-14T18:43:23.797Z,43.40
2022-12-14T18:45:53.121Z,41.00
2022-12-14T18:48:21.273Z,42.50
2022-12-14T18:50:49.650Z,42.42
2022-12-14T18:53:19.451Z,48.05
2022-12-14T18:55:47.476Z,45.25
2022-12-14T18:58:24.980Z,45.83
2022-12-14T19:00:54.851Z,45.92
2022-12-14T19:03:23.220Z,40.42
2022-12-14T19:05:50.595Z,42.00
2022-12-14T19:08:18.143Z,36.03
2022-12-14T19:10:48.150Z,35.60
2022-12-14T19:13:25.067Z,35.95
2022-12-14T19:15:52.971Z,34.63
2022-12-14T19:18:20.039Z,31.65
2022-12-14T19:20:49.527Z,32.33
2022-12-14T19:23:21.786Z,32.58
2022-12-14T19:25:48.738Z,33.00
2022-12-14T19:28:31.589Z,32.53
2022-12-14T19:31:01.192Z,32.85
2022-12-14T19:33:29.234Z,32.67
2022-12-14T19:35:56.719Z,31.30
2022-12-14T19:38:23.622Z,30.42
2022-12-14T19:41:18.034Z,29.23
2022-12-14T19:43:44.869Z,28.17
2022-12-14T19:46:13.769Z,27.85
2022-12-14T19:48:42.311Z,27.33
2022-12-14T19:51:11.813Z,26.48
2022-12-14T19:53:40.718Z,26.70
2022-12-14T19:56:08.394Z,25.20
2022-12-14T19:58:35.689Z,26.35
2022-12-14T20:01:08.720Z,27.33
2022-12-14T20:03:36.155Z,24.58
2022-12-14T20:06:04.798Z,25.13
2022-12-14T20:08:33.295Z,28.38
2022-12-14T20:11:04.937Z,25.75
2022-12-14T20:13:32.170Z,24.40
2022-12-14T20:16:00.106Z,29.13
2022-12-14T20:18:28.443Z,26.95
2022-12-14T20:21:03.290Z,26.83
2022-12-14T20:23:32.506Z,24.95
2022-12-14T20:26:01.597Z,25.83
2022-12-14T20:28:28.793Z,22.05
2022-12-14T20:30:59.032Z,21.00
2022-12-14T20:33:30.114Z,22.58
2022-12-14T20:35:58.208Z,21.30
2022-12-14T20:38:25.109Z,20.40
2022-12-14T20:40:52.799Z,20.90
2022-12-14T20:43:20.046Z,21.02
2022-12-14T20:45:47.081Z,19.98
2022-12-14T20:48:14.115Z,20.15
2022-12-14T20:50:42.621Z,22.63
2022-12-14T20:53:09.466Z,23.15
2022-12-14T20:55:36.285Z,23.33
2022-12-14T20:58:03.264Z,21.80
2022-12-14T21:00:30.536Z,21.98
2022-12-14T21:02:57.711Z,19.02
2022-12-14T21:05:25.276Z,21.73
2022-12-14T21:07:52.049Z,20.55
2022-12-14T21:10:18.989Z,19.58
2022-12-14T21:12:48.713Z,21.60
2022-12-14T21:15:15.729Z,22.15
2022-12-14T21:17:42.604Z,24.30
2022-12-14T21:20:11.547Z,25.25
2022-12-14T21:22:38.932Z,23.35
2022-12-14T21:25:07.101Z,22.85
2022-12-14T21:27:38.423Z,23.45
2022-12-14T21:30:10.929Z,22.25
2022-12-14T21:32:38.283Z,20.90
2022-12-14T21:35:05.856Z,21.40
2022-12-14T21:37:32.712Z,20.63
2022-12-14T21:40:02.940Z,22.15
2022-12-14T21:42:29.803Z,20.75
2022-12-14T21:44:57.618Z,20.27
2022-12-14T21:47:26.691Z,20.38
2022-12-14T21:49:54.192Z,20.92
2022-12-14T21:52:24.370Z,20.85
2022-12-14T21:54:51.209Z,21.35
2022-12-14T21:57:39.235Z,21.80
2022-12-14T22:00:08.751Z,22.17
2022-12-14T22:02:35.896Z,23.75
2022-12-14T22:05:02.772Z,24.65
2022-12-14T22:07:31.980Z,24.88
2022-12-14T22:09:59.245Z,23.50
2022-12-14T22:12:26.434Z,23.40
2022-12-14T22:14:53.712Z,22.75
2022-12-14T22:17:20.850Z,21.75
2022-12-14T22:19:48.907Z,21.77
2022-12-14T22:22:16.517Z,19.92
2022-12-14T22:24:43.972Z,20.42
2022-12-14T22:27:12.365Z,20.45
2022-12-14T22:29:39.186Z,22.58
2022-12-14T22:32:06.897Z,20.77
2022-12-14T22:34:34.061Z,22.65
2022-12-14T22:37:00.921Z,23.63
2022-12-14T22:39:27.672Z,21.77
2022-12-14T22:41:54.635Z,21.67
2022-12-14T22:44:21.555Z,20.15
2022-12-14T22:46:50.213Z,22.05
2022-12-14T22:49:18.367Z,21.17
2022-12-14T22:51:45.644Z,19.67
2022-12-14T22:54:23.624Z,19.90
2022-12-14T22:56:58.708Z,21.40
2022-12-14T23:00:04.829Z,21.35
2022-12-14T23:02:31.995Z,21.70
2022-12-14T23:04:59.070Z,19.48
2022-12-14T23:07:25.885Z,19.38
2022-12-14T23:10:11.285Z,20.70
2022-12-14T23:12:56.752Z,20.17
2022-12-14T23:15:41.937Z,20.50
2022-12-14T23:18:27.519Z,20.17
2022-12-14T23:21:12.951Z,18.67
2022-12-14T23:24:00.629Z,19.65
2022-12-14T23:26:46.011Z,21.60
2022-12-14T23:29:32.446Z,18.75
2022-12-14T23:32:18.184Z,17.98
2022-12-14T23:35:03.317Z,19.83
2022-12-14T23:37:48.609Z,20.05
2022-12-14T23:40:34.243Z,18.50
2022-12-14T23:43:34.887Z,19.05
2022-12-14T23:46:22.379Z,17.92
2022-12-14T23:49:12.018Z,20.08
2022-12-14T23:52:01.157Z,18.65
2022-12-14T23:54:46.730Z,19.58
2022-12-14T23:57:32.378Z,19.17
